Terminal Aerodrome Forecast
Issued by NWS

Home | Current Version | Previous Version | Text Only | Print | Product List | Glossary On
Versions: 1 2 3 4 5 6 7 8 9 10 11 12 13 14 15 16
429
FTUS43 KILX 240543
TAFCMI
TAF
KCMI 240543Z 2406/2506 VRB06KT 5SM -SHRA BR OVC035
     FM240900 34004KT 2SM BR VCSH OVC020
     FM241300 34005KT 4SM BR VCSH OVC025
     FM241600 34009KT P6SM VCSH OVC035=

USA.gov is the U.S. government's official web portal to all federal, state and local government web resources and services.